sensor_id;sensor_type;location;lat;lon;timestamp;temperature;humidity
59999;DHT22;45859;51.378;6.736;2023-02-28T00:00:51;-0.10;99.90
59999;DHT22;45859;51.378;6.736;2023-02-28T00:03:17;0.60;99.90
59999;DHT22;45859;51.378;6.736;2023-02-28T00:05:43;0.70;99.90
59999;DHT22;45859;51.378;6.736;2023-02-28T00:08:09;-0.20;99.90
59999;DHT22;45859;51.378;6.736;2023-02-28T00:10:35;1.70;99.90
59999;DHT22;45859;51.378;6.736;2023-02-28T00:13:06;-0.10;99.90
59999;DHT22;45859;51.378;6.736;2023-02-28T00:15:31;0.50;99.90
59999;DHT22;45859;51.378;6.736;2023-02-28T00:17:57;0.50;99.90
59999;DHT22;45859;51.378;6.736;2023-02-28T00:20:24;0.50;99.90
59999;DHT22;45859;51.378;6.736;2023-02-28T00:22:51;0.50;99.90
59999;DHT22;45859;51.378;6.736;2023-02-28T00:25:23;0.40;99.90
59999;DHT22;45859;51.378;6.736;2023-02-28T00:27:49;0.60;99.90
59999;DHT22;45859;51.378;6.736;2023-02-28T00:30:18;0.30;99.90
59999;DHT22;45859;51.378;6.736;2023-02-28T00:32:44;0.30;99.90
59999;DHT22;45859;51.378;6.736;2023-02-28T00:35:10;0.20;99.90
59999;DHT22;45859;51.378;6.736;2023-02-28T00:37:36;0.30;99.90
59999;DHT22;45859;51.378;6.736;2023-02-28T00:40:03;0.10;99.90
59999;DHT22;45859;51.378;6.736;2023-02-28T00:42:33;0.30;99.90
59999;DHT22;45859;51.378;6.736;2023-02-28T00:44:58;0.20;99.90
59999;DHT22;45859;51.378;6.736;2023-02-28T00:47:25;0.10;99.90
59999;DHT22;45859;51.378;6.736;2023-02-28T00:49:50;0.00;99.90
59999;DHT22;45859;51.378;6.736;2023-02-28T00:52:16;0.00;99.90
59999;DHT22;45859;51.378;6.736;2023-02-28T00:54:41;0.10;99.90
59999;DHT22;45859;51.378;6.736;2023-02-28T00:57:07;0.10;99.90
59999;DHT22;45859;51.378;6.736;2023-02-28T00:59:33;0.20;99.90
59999;DHT22;45859;51.378;6.736;2023-02-28T01:01:58;0.20;99.90
59999;DHT22;45859;51.378;6.736;2023-02-28T01:04:24;0.20;99.90
59999;DHT22;45859;51.378;6.736;2023-02-28T01:06:50;0.10;99.90
59999;DHT22;45859;51.378;6.736;2023-02-28T01:09:15;0.10;99.90
59999;DHT22;45859;51.378;6.736;2023-02-28T01:11:42;0.10;99.90
59999;DHT22;45859;51.378;6.736;2023-02-28T01:14:12;-0.40;99.90
59999;DHT22;45859;51.378;6.736;2023-02-28T01:16:38;0.10;99.90
59999;DHT22;45859;51.378;6.736;2023-02-28T01:19:04;0.10;99.90
59999;DHT22;45859;51.378;6.736;2023-02-28T01:21:29;0.10;99.90
59999;DHT22;45859;51.378;6.736;2023-02-28T01:23:57;0.20;99.90
59999;DHT22;45859;51.378;6.736;2023-02-28T01:26:23;0.20;99.90
59999;DHT22;45859;51.378;6.736;2023-02-28T01:28:51;0.20;99.90
59999;DHT22;45859;51.378;6.736;2023-02-28T01:31:17;0.10;99.90
59999;DHT22;45859;51.378;6.736;2023-02-28T01:33:44;0.10;99.90
59999;DHT22;45859;51.378;6.736;2023-02-28T01:36:12;0.00;99.90
59999;DHT22;45859;51.378;6.736;2023-02-28T01:38:38;-0.70;99.90
59999;DHT22;45859;51.378;6.736;2023-02-28T01:41:05;0.00;99.90
59999;DHT22;45859;51.378;6.736;2023-02-28T01:46:07;0.00;99.90
59999;DHT22;45859;51.378;6.736;2023-02-28T01:48:36;0.30;99.90
59999;DHT22;45859;51.378;6.736;2023-02-28T01:51:08;0.10;99.90
59999;DHT22;45859;51.378;6.736;2023-02-28T01:53:42;-0.10;99.90
59999;DHT22;45859;51.378;6.736;2023-02-28T01:56:11;-0.30;99.90
59999;DHT22;45859;51.378;6.736;2023-02-28T01:58:39;-0.10;99.90
59999;DHT22;45859;51.378;6.736;2023-02-28T02:01:05;0.00;99.90
59999;DHT22;45859;51.378;6.736;2023-02-28T02:03:31;-0.30;99.90
59999;DHT22;45859;51.378;6.736;2023-02-28T02:05:57;-0.20;99.90
59999;DHT22;45859;51.378;6.736;2023-02-28T02:08:25;-0.30;99.90
59999;DHT22;45859;51.378;6.736;2023-02-28T02:10:54;-0.10;99.90
59999;DHT22;45859;51.378;6.736;2023-02-28T02:36:00;0.80;99.90
59999;DHT22;45859;51.378;6.736;2023-02-28T02:43:48;-0.70;99.90
59999;DHT22;45859;51.378;6.736;2023-02-28T02:46:39;-0.60;99.90
59999;DHT22;45859;51.378;6.736;2023-02-28T02:49:09;-0.40;99.90
59999;DHT22;45859;51.378;6.736;2023-02-28T02:51:39;-2.20;99.90
59999;DHT22;45859;51.378;6.736;2023-02-28T02:54:10;-0.70;99.90
59999;DHT22;45859;51.378;6.736;2023-02-28T02:56:39;-1.00;99.90
59999;DHT22;45859;51.378;6.736;2023-02-28T02:59:10;-0.30;99.90
59999;DHT22;45859;51.378;6.736;2023-02-28T03:01:37;-0.80;99.90
59999;DHT22;45859;51.378;6.736;2023-02-28T03:04:07;0.30;99.90
59999;DHT22;45859;51.378;6.736;2023-02-28T03:06:33;-0.70;99.90
59999;DHT22;45859;51.378;6.736;2023-02-28T03:09:00;-0.80;99.90
59999;DHT22;45859;51.378;6.736;2023-02-28T03:11:26;0.00;99.90
59999;DHT22;45859;51.378;6.736;2023-02-28T03:16:49;-0.40;99.90
59999;DHT22;45859;51.378;6.736;2023-02-28T03:27:34;-0.60;99.90
59999;DHT22;45859;51.378;6.736;2023-02-28T03:35:24;-0.60;99.90
59999;DHT22;45859;51.378;6.736;2023-02-28T03:37:54;-0.80;99.90
59999;DHT22;45859;51.378;6.736;2023-02-28T03:40:26;-0.80;99.90
59999;DHT22;45859;51.378;6.736;2023-02-28T03:42:54;-0.80;99.90
59999;DHT22;45859;51.378;6.736;2023-02-28T03:45:26;-0.80;99.90
59999;DHT22;45859;51.378;6.736;2023-02-28T03:47:58;-0.60;99.90
59999;DHT22;45859;51.378;6.736;2023-02-28T03:50:34;-0.90;99.90
59999;DHT22;45859;51.378;6.736;2023-02-28T03:53:42;-0.90;99.90
59999;DHT22;45859;51.378;6.736;2023-02-28T03:56:23;-2.00;99.90
59999;DHT22;45859;51.378;6.736;2023-02-28T03:58:57;-1.00;99.90
59999;DHT22;45859;51.378;6.736;2023-02-28T04:01:45;-0.80;99.90
59999;DHT22;45859;51.378;6.736;2023-02-28T04:04:12;0.20;99.90
59999;DHT22;45859;51.378;6.736;2023-02-28T04:06:39;-1.10;99.90
59999;DHT22;45859;51.378;6.736;2023-02-28T04:09:07;-1.50;99.90
59999;DHT22;45859;51.378;6.736;2023-02-28T04:14:04;-1.70;99.90
59999;DHT22;45859;51.378;6.736;2023-02-28T04:16:31;0.20;99.90
59999;DHT22;45859;51.378;6.736;2023-02-28T04:18:57;-1.00;99.90
59999;DHT22;45859;51.378;6.736;2023-02-28T04:21:37;-0.80;99.90
59999;DHT22;45859;51.378;6.736;2023-02-28T04:24:05;-1.10;99.90
59999;DHT22;45859;51.378;6.736;2023-02-28T04:26:35;-1.10;99.90
59999;DHT22;45859;51.378;6.736;2023-02-28T04:29:04;-0.40;99.90
59999;DHT22;45859;51.378;6.736;2023-02-28T04:31:30;-0.80;99.90
59999;DHT22;45859;51.378;6.736;2023-02-28T04:33:56;-0.90;99.90
59999;DHT22;45859;51.378;6.736;2023-02-28T04:36:21;-1.10;99.90
59999;DHT22;45859;51.378;6.736;2023-02-28T04:38:49;-1.00;99.90
59999;DHT22;45859;51.378;6.736;2023-02-28T04:41:15;-2.10;99.90
59999;DHT22;45859;51.378;6.736;2023-02-28T04:46:08;-1.10;99.90
59999;DHT22;45859;51.378;6.736;2023-02-28T04:48:37;-0.10;99.90
59999;DHT22;45859;51.378;6.736;2023-02-28T04:51:08;-0.90;99.90
59999;DHT22;45859;51.378;6.736;2023-02-28T04:53:36;-1.10;99.90
59999;DHT22;45859;51.378;6.736;2023-02-28T04:56:02;-1.00;99.90
59999;DHT22;45859;51.378;6.736;2023-02-28T04:58:28;-1.60;99.90
59999;DHT22;45859;51.378;6.736;2023-02-28T05:01:04;-1.20;99.90
59999;DHT22;45859;51.378;6.736;2023-02-28T05:03:35;-1.10;99.90
59999;DHT22;45859;51.378;6.736;2023-02-28T05:06:01;-1.30;99.90
59999;DHT22;45859;51.378;6.736;2023-02-28T05:08:27;-1.20;99.90
59999;DHT22;45859;51.378;6.736;2023-02-28T05:10:55;-1.30;99.90
59999;DHT22;45859;51.378;6.736;2023-02-28T05:15:46;-1.10;99.90
59999;DHT22;45859;51.378;6.736;2023-02-28T05:18:12;-1.10;99.90
59999;DHT22;45859;51.378;6.736;2023-02-28T05:20:38;-0.90;99.90
59999;DHT22;45859;51.378;6.736;2023-02-28T05:23:03;-0.90;99.90
59999;DHT22;45859;51.378;6.736;2023-02-28T05:25:29;-1.10;99.90
59999;DHT22;45859;51.378;6.736;2023-02-28T05:27:55;-1.40;99.90
59999;DHT22;45859;51.378;6.736;2023-02-28T05:30:20;-1.50;99.90
59999;DHT22;45859;51.378;6.736;2023-02-28T05:32:50;-1.30;99.90
59999;DHT22;45859;51.378;6.736;2023-02-28T05:35:16;-2.00;99.90
59999;DHT22;45859;51.378;6.736;2023-02-28T05:37:41;-1.40;99.90
59999;DHT22;45859;51.378;6.736;2023-02-28T05:40:08;-0.60;99.90
59999;DHT22;45859;51.378;6.736;2023-02-28T05:42:37;-1.30;99.90
59999;DHT22;45859;51.378;6.736;2023-02-28T05:45:04;-1.00;99.90
59999;DHT22;45859;51.378;6.736;2023-02-28T05:49:56;-1.30;99.90
59999;DHT22;45859;51.378;6.736;2023-02-28T05:54:47;-2.10;99.90
59999;DHT22;45859;51.378;6.736;2023-02-28T05:57:13;-1.30;99.90
59999;DHT22;45859;51.378;6.736;2023-02-28T06:02:08;-2.10;99.90
59999;DHT22;45859;51.378;6.736;2023-02-28T06:04:36;-1.40;99.90
59999;DHT22;45859;51.378;6.736;2023-02-28T06:07:02;-1.10;99.90
59999;DHT22;45859;51.378;6.736;2023-02-28T06:09:27;-1.30;99.90
59999;DHT22;45859;51.378;6.736;2023-02-28T06:11:54;-0.80;99.90
59999;DHT22;45859;51.378;6.736;2023-02-28T06:14:20;-1.40;99.90
59999;DHT22;45859;51.378;6.736;2023-02-28T06:16:47;0.40;99.90
59999;DHT22;45859;51.378;6.736;2023-02-28T06:19:12;-1.70;99.90
59999;DHT22;45859;51.378;6.736;2023-02-28T06:21:39;-1.40;99.90
59999;DHT22;45859;51.378;6.736;2023-02-28T06:24:04;-1.40;99.90
59999;DHT22;45859;51.378;6.736;2023-02-28T06:26:31;-1.40;99.90
59999;DHT22;45859;51.378;6.736;2023-02-28T06:28:57;-1.20;99.90
59999;DHT22;45859;51.378;6.736;2023-02-28T06:31:23;-1.50;99.90
59999;DHT22;45859;51.378;6.736;2023-02-28T06:33:51;-1.50;99.90
59999;DHT22;45859;51.378;6.736;2023-02-28T06:36:17;-1.50;99.90
59999;DHT22;45859;51.378;6.736;2023-02-28T06:38:43;-1.50;99.90
59999;DHT22;45859;51.378;6.736;2023-02-28T06:41:10;-1.50;99.90
59999;DHT22;45859;51.378;6.736;2023-02-28T06:43:39;-1.50;99.90
59999;DHT22;45859;51.378;6.736;2023-02-28T06:46:08;-1.50;99.90
59999;DHT22;45859;51.378;6.736;2023-02-28T06:48:34;-1.40;99.90
59999;DHT22;45859;51.378;6.736;2023-02-28T06:51:09;-1.40;99.90
59999;DHT22;45859;51.378;6.736;2023-02-28T06:53:35;-1.30;99.90
59999;DHT22;45859;51.378;6.736;2023-02-28T06:56:06;-1.30;99.90
59999;DHT22;45859;51.378;6.736;2023-02-28T06:58:32;-1.30;99.90
59999;DHT22;45859;51.378;6.736;2023-02-28T07:00:58;-1.20;99.90
59999;DHT22;45859;51.378;6.736;2023-02-28T07:03:24;-1.20;99.90
59999;DHT22;45859;51.378;6.736;2023-02-28T07:05:50;-1.10;99.90
59999;DHT22;45859;51.378;6.736;2023-02-28T07:08:20;-1.00;99.90
59999;DHT22;45859;51.378;6.736;2023-02-28T07:10:46;-0.70;99.90
59999;DHT22;45859;51.378;6.736;2023-02-28T07:13:14;-0.50;99.90
59999;DHT22;45859;51.378;6.736;2023-02-28T07:15:57;-0.40;99.90
59999;DHT22;45859;51.378;6.736;2023-02-28T07:18:23;-0.50;99.90
59999;DHT22;45859;51.378;6.736;2023-02-28T07:20:51;-0.30;99.90
59999;DHT22;45859;51.378;6.736;2023-02-28T07:23:18;-0.10;99.90
59999;DHT22;45859;51.378;6.736;2023-02-28T07:25:44;0.00;99.90
59999;DHT22;45859;51.378;6.736;2023-02-28T07:28:15;0.00;99.90
59999;DHT22;45859;51.378;6.736;2023-02-28T07:30:43;0.10;99.90
59999;DHT22;45859;51.378;6.736;2023-02-28T07:33:11;0.40;99.90
59999;DHT22;45859;51.378;6.736;2023-02-28T07:35:40;0.70;99.90
59999;DHT22;45859;51.378;6.736;2023-02-28T07:38:10;0.90;99.90
59999;DHT22;45859;51.378;6.736;2023-02-28T07:40:38;1.20;99.90
59999;DHT22;45859;51.378;6.736;2023-02-28T07:43:04;1.60;99.90
59999;DHT22;45859;51.378;6.736;2023-02-28T07:45:32;2.00;99.90
59999;DHT22;45859;51.378;6.736;2023-02-28T07:48:00;2.20;99.90
59999;DHT22;45859;51.378;6.736;2023-02-28T07:50:26;2.70;99.90
59999;DHT22;45859;51.378;6.736;2023-02-28T07:52:59;2.70;99.90
59999;DHT22;45859;51.378;6.736;2023-02-28T07:55:27;2.90;99.90
59999;DHT22;45859;51.378;6.736;2023-02-28T07:57:54;3.10;99.90
59999;DHT22;45859;51.378;6.736;2023-02-28T08:00:20;3.30;99.90
59999;DHT22;45859;51.378;6.736;2023-02-28T08:02:47;3.60;99.90
59999;DHT22;45859;51.378;6.736;2023-02-28T08:05:13;4.00;99.90
59999;DHT22;45859;51.378;6.736;2023-02-28T08:07:39;4.50;99.90
59999;DHT22;45859;51.378;6.736;2023-02-28T08:10:05;4.40;99.90
59999;DHT22;45859;51.378;6.736;2023-02-28T08:12:32;4.80;99.90
59999;DHT22;45859;51.378;6.736;2023-02-28T08:15:01;4.70;99.90
59999;DHT22;45859;51.378;6.736;2023-02-28T08:17:30;4.80;99.90
59999;DHT22;45859;51.378;6.736;2023-02-28T08:19:57;4.80;99.90
59999;DHT22;45859;51.378;6.736;2023-02-28T08:22:26;4.60;99.90
59999;DHT22;45859;51.378;6.736;2023-02-28T08:24:52;4.90;99.90
59999;DHT22;45859;51.378;6.736;2023-02-28T08:27:21;4.80;99.90
59999;DHT22;45859;51.378;6.736;2023-02-28T08:29:47;5.20;99.90
59999;DHT22;45859;51.378;6.736;2023-02-28T08:32:20;5.60;99.90
59999;DHT22;45859;51.378;6.736;2023-02-28T08:34:49;6.00;99.90
59999;DHT22;45859;51.378;6.736;2023-02-28T08:37:15;6.70;99.90
59999;DHT22;45859;51.378;6.736;2023-02-28T08:39:41;7.40;99.90
59999;DHT22;45859;51.378;6.736;2023-02-28T08:42:07;7.80;99.90
59999;DHT22;45859;51.378;6.736;2023-02-28T08:44:36;8.10;99.90
59999;DHT22;45859;51.378;6.736;2023-02-28T08:47:03;8.80;99.90
59999;DHT22;45859;51.378;6.736;2023-02-28T08:49:29;8.30;99.90
59999;DHT22;45859;51.378;6.736;2023-02-28T08:51:55;7.20;99.90
59999;DHT22;45859;51.378;6.736;2023-02-28T08:54:23;7.80;99.90
59999;DHT22;45859;51.378;6.736;2023-02-28T08:56:56;7.80;99.90
59999;DHT22;45859;51.378;6.736;2023-02-28T08:59:22;8.40;99.90
59999;DHT22;45859;51.378;6.736;2023-02-28T09:01:48;7.50;99.90
59999;DHT22;45859;51.378;6.736;2023-02-28T09:04:14;7.90;99.90
59999;DHT22;45859;51.378;6.736;2023-02-28T09:06:39;7.70;99.90
59999;DHT22;45859;51.378;6.736;2023-02-28T09:09:05;8.10;99.90
59999;DHT22;45859;51.378;6.736;2023-02-28T09:11:33;8.70;99.90
59999;DHT22;45859;51.378;6.736;2023-02-28T09:14:00;9.30;99.90
59999;DHT22;45859;51.378;6.736;2023-02-28T09:16:26;8.80;99.90
59999;DHT22;45859;51.378;6.736;2023-02-28T09:18:52;8.80;99.90
59999;DHT22;45859;51.378;6.736;2023-02-28T09:21:18;8.80;99.90
59999;DHT22;45859;51.378;6.736;2023-02-28T09:23:46;8.00;99.90
59999;DHT22;45859;51.378;6.736;2023-02-28T09:26:17;7.60;99.90
59999;DHT22;45859;51.378;6.736;2023-02-28T09:28:44;7.20;99.90
59999;DHT22;45859;51.378;6.736;2023-02-28T09:31:15;6.10;99.90
59999;DHT22;45859;51.378;6.736;2023-02-28T09:33:41;5.70;99.90
59999;DHT22;45859;51.378;6.736;2023-02-28T09:36:07;5.60;99.90
59999;DHT22;45859;51.378;6.736;2023-02-28T09:38:32;5.20;99.90
59999;DHT22;45859;51.378;6.736;2023-02-28T09:41:04;4.90;99.90
59999;DHT22;45859;51.378;6.736;2023-02-28T09:43:37;4.70;99.90
59999;DHT22;45859;51.378;6.736;2023-02-28T09:46:32;4.30;99.90
59999;DHT22;45859;51.378;6.736;2023-02-28T09:49:02;4.50;99.90
59999;DHT22;45859;51.378;6.736;2023-02-28T09:54:09;4.50;99.90
59999;DHT22;45859;51.378;6.736;2023-02-28T09:56:39;4.50;99.90
59999;DHT22;45859;51.378;6.736;2023-02-28T10:06:54;4.40;99.90
59999;DHT22;45859;51.378;6.736;2023-02-28T10:09:24;4.00;99.90
59999;DHT22;45859;51.378;6.736;2023-02-28T10:11:52;4.10;99.90
59999;DHT22;45859;51.378;6.736;2023-02-28T10:14:22;4.40;99.90
59999;DHT22;45859;51.378;6.736;2023-02-28T10:22:27;5.00;99.90
59999;DHT22;45859;51.378;6.736;2023-02-28T10:24:55;5.20;99.90
59999;DHT22;45859;51.378;6.736;2023-02-28T10:27:31;5.20;99.90
59999;DHT22;45859;51.378;6.736;2023-02-28T10:29:58;5.20;99.90
59999;DHT22;45859;51.378;6.736;2023-02-28T10:32:35;5.20;99.90
59999;DHT22;45859;51.378;6.736;2023-02-28T10:37:37;5.10;99.90
59999;DHT22;45859;51.378;6.736;2023-02-28T10:40:05;5.30;99.90
59999;DHT22;45859;51.378;6.736;2023-02-28T10:42:31;4.90;99.90
59999;DHT22;45859;51.378;6.736;2023-02-28T10:45:14;5.10;99.90
59999;DHT22;45859;51.378;6.736;2023-02-28T10:47:59;5.10;99.90
59999;DHT22;45859;51.378;6.736;2023-02-28T10:50:50;5.10;99.90
59999;DHT22;45859;51.378;6.736;2023-02-28T10:56:20;5.20;99.90
59999;DHT22;45859;51.378;6.736;2023-02-28T11:01:20;5.50;99.90
59999;DHT22;45859;51.378;6.736;2023-02-28T11:03:47;5.20;99.90
59999;DHT22;45859;51.378;6.736;2023-02-28T11:06:22;5.50;99.90
59999;DHT22;45859;51.378;6.736;2023-02-28T11:08:57;5.60;99.90
59999;DHT22;45859;51.378;6.736;2023-02-28T11:11:29;5.60;99.90
59999;DHT22;45859;51.378;6.736;2023-02-28T11:14:02;5.20;99.90
59999;DHT22;45859;51.378;6.736;2023-02-28T11:16:37;5.20;99.90
59999;DHT22;45859;51.378;6.736;2023-02-28T11:19:05;5.30;99.90
59999;DHT22;45859;51.378;6.736;2023-02-28T11:21:36;5.50;99.90
59999;DHT22;45859;51.378;6.736;2023-02-28T11:24:28;5.70;99.90
59999;DHT22;45859;51.378;6.736;2023-02-28T11:26:55;5.40;99.90
59999;DHT22;45859;51.378;6.736;2023-02-28T11:29:25;5.60;99.90
59999;DHT22;45859;51.378;6.736;2023-02-28T11:34:36;5.20;99.90
59999;DHT22;45859;51.378;6.736;2023-02-28T11:37:03;4.90;99.90
59999;DHT22;45859;51.378;6.736;2023-02-28T11:39:32;4.90;99.90
59999;DHT22;45859;51.378;6.736;2023-02-28T11:47:49;5.10;99.90
59999;DHT22;45859;51.378;6.736;2023-02-28T11:50:22;4.90;99.90
59999;DHT22;45859;51.378;6.736;2023-02-28T11:52:57;4.70;99.90
59999;DHT22;45859;51.378;6.736;2023-02-28T11:55:39;4.80;99.90
59999;DHT22;45859;51.378;6.736;2023-02-28T12:16:16;4.50;99.90
59999;DHT22;45859;51.378;6.736;2023-02-28T12:21:42;4.60;99.90
59999;DHT22;45859;51.378;6.736;2023-02-28T12:26:45;4.40;99.90
59999;DHT22;45859;51.378;6.736;2023-02-28T12:29:29;4.40;99.90
59999;DHT22;45859;51.378;6.736;2023-02-28T12:32:45;4.60;99.90
59999;DHT22;45859;51.378;6.736;2023-02-28T12:37:38;5.00;99.90
59999;DHT22;45859;51.378;6.736;2023-02-28T12:40:12;5.00;99.90
59999;DHT22;45859;51.378;6.736;2023-02-28T12:42:52;5.10;99.90
59999;DHT22;45859;51.378;6.736;2023-02-28T12:45:39;5.10;99.90
59999;DHT22;45859;51.378;6.736;2023-02-28T12:48:08;4.90;99.90
59999;DHT22;45859;51.378;6.736;2023-02-28T12:50:35;4.90;99.90
59999;DHT22;45859;51.378;6.736;2023-02-28T12:58:58;4.90;99.90
59999;DHT22;45859;51.378;6.736;2023-02-28T13:07:08;4.90;99.90
59999;DHT22;45859;51.378;6.736;2023-02-28T13:09:38;4.90;99.90
59999;DHT22;45859;51.378;6.736;2023-02-28T13:12:15;4.30;99.90
59999;DHT22;45859;51.378;6.736;2023-02-28T13:14:42;4.80;99.90
59999;DHT22;45859;51.378;6.736;2023-02-28T13:19:58;4.90;99.90
59999;DHT22;45859;51.378;6.736;2023-02-28T13:22:39;5.00;99.90
59999;DHT22;45859;51.378;6.736;2023-02-28T13:27:54;5.00;99.90
59999;DHT22;45859;51.378;6.736;2023-02-28T13:35:46;5.20;99.90
59999;DHT22;45859;51.378;6.736;2023-02-28T13:38:17;5.20;99.90
59999;DHT22;45859;51.378;6.736;2023-02-28T13:40:42;5.10;99.90
59999;DHT22;45859;51.378;6.736;2023-02-28T13:43:08;5.10;99.90
59999;DHT22;45859;51.378;6.736;2023-02-28T13:45:34;5.00;99.90
59999;DHT22;45859;51.378;6.736;2023-02-28T13:48:19;5.10;99.90
59999;DHT22;45859;51.378;6.736;2023-02-28T13:50:47;5.10;99.90
59999;DHT22;45859;51.378;6.736;2023-02-28T13:58:42;5.10;99.90
59999;DHT22;45859;51.378;6.736;2023-02-28T14:06:59;5.10;99.90
59999;DHT22;45859;51.378;6.736;2023-02-28T14:09:34;5.20;99.90
59999;DHT22;45859;51.378;6.736;2023-02-28T14:15:24;5.10;99.90
59999;DHT22;45859;51.378;6.736;2023-02-28T14:17:54;5.10;99.90
59999;DHT22;45859;51.378;6.736;2023-02-28T14:20:22;5.10;99.90
59999;DHT22;45859;51.378;6.736;2023-02-28T14:31:54;5.30;99.90
59999;DHT22;45859;51.378;6.736;2023-02-28T14:34:57;5.20;99.90
59999;DHT22;45859;51.378;6.736;2023-02-28T14:37:34;5.20;99.90
59999;DHT22;45859;51.378;6.736;2023-02-28T14:40:04;4.80;99.90
59999;DHT22;45859;51.378;6.736;2023-02-28T14:42:33;5.30;99.90
59999;DHT22;45859;51.378;6.736;2023-02-28T14:44:59;5.30;99.90
59999;DHT22;45859;51.378;6.736;2023-02-28T14:47:30;5.20;99.90
59999;DHT22;45859;51.378;6.736;2023-02-28T14:49:58;5.20;99.90
59999;DHT22;45859;51.378;6.736;2023-02-28T14:52:27;5.30;99.90
59999;DHT22;45859;51.378;6.736;2023-02-28T14:54:56;5.20;99.90
59999;DHT22;45859;51.378;6.736;2023-02-28T14:57:25;5.30;99.90
59999;DHT22;45859;51.378;6.736;2023-02-28T15:00:25;5.20;99.90
59999;DHT22;45859;51.378;6.736;2023-02-28T15:02:51;5.20;99.90
59999;DHT22;45859;51.378;6.736;2023-02-28T15:05:32;5.20;99.90
59999;DHT22;45859;51.378;6.736;2023-02-28T15:08:11;5.20;99.90
59999;DHT22;45859;51.378;6.736;2023-02-28T15:10:38;5.30;99.90
59999;DHT22;45859;51.378;6.736;2023-02-28T15:13:07;5.30;99.90
59999;DHT22;45859;51.378;6.736;2023-02-28T15:18:36;5.20;99.90
59999;DHT22;45859;51.378;6.736;2023-02-28T15:21:12;5.10;99.90
59999;DHT22;45859;51.378;6.736;2023-02-28T15:23:41;5.10;99.90
59999;DHT22;45859;51.378;6.736;2023-02-28T15:26:15;5.00;99.90
59999;DHT22;45859;51.378;6.736;2023-02-28T15:28:42;5.10;99.90
59999;DHT22;45859;51.378;6.736;2023-02-28T15:31:26;5.10;99.90
59999;DHT22;45859;51.378;6.736;2023-02-28T15:33:57;5.10;99.90
59999;DHT22;45859;51.378;6.736;2023-02-28T15:36:30;5.10;99.90
59999;DHT22;45859;51.378;6.736;2023-02-28T15:38:59;5.10;99.90
59999;DHT22;45859;51.378;6.736;2023-02-28T15:41:30;5.10;99.90
59999;DHT22;45859;51.378;6.736;2023-02-28T15:47:01;5.10;99.90
59999;DHT22;45859;51.378;6.736;2023-02-28T15:49:29;5.20;99.90
59999;DHT22;45859;51.378;6.736;2023-02-28T15:51:58;5.10;99.90
59999;DHT22;45859;51.378;6.736;2023-02-28T15:54:29;5.10;99.90
59999;DHT22;45859;51.378;6.736;2023-02-28T15:56:55;5.10;99.90
59999;DHT22;45859;51.378;6.736;2023-02-28T15:59:27;5.10;99.90
59999;DHT22;45859;51.378;6.736;2023-02-28T16:02:16;5.00;99.90
59999;DHT22;45859;51.378;6.736;2023-02-28T16:07:41;4.90;99.90
59999;DHT22;45859;51.378;6.736;2023-02-28T16:10:10;4.90;99.90
59999;DHT22;45859;51.378;6.736;2023-02-28T16:12:38;4.80;99.90
59999;DHT22;45859;51.378;6.736;2023-02-28T16:15:25;4.80;99.90
59999;DHT22;45859;51.378;6.736;2023-02-28T16:17:52;4.90;99.90
59999;DHT22;45859;51.378;6.736;2023-02-28T16:20:25;4.80;99.90
59999;DHT22;45859;51.378;6.736;2023-02-28T16:22:52;4.80;99.90
59999;DHT22;45859;51.378;6.736;2023-02-28T16:25:20;4.80;99.90
59999;DHT22;45859;51.378;6.736;2023-02-28T16:27:49;4.80;99.90
59999;DHT22;45859;51.378;6.736;2023-02-28T16:30:24;4.80;99.90
59999;DHT22;45859;51.378;6.736;2023-02-28T16:32:51;4.80;99.90
59999;DHT22;45859;51.378;6.736;2023-02-28T16:35:19;4.80;99.90
59999;DHT22;45859;51.378;6.736;2023-02-28T16:37:45;4.70;99.90
59999;DHT22;45859;51.378;6.736;2023-02-28T16:40:17;4.70;99.90
59999;DHT22;45859;51.378;6.736;2023-02-28T16:42:45;4.70;99.90
59999;DHT22;45859;51.378;6.736;2023-02-28T16:45:20;4.70;99.90
59999;DHT22;45859;51.378;6.736;2023-02-28T16:47:46;4.60;99.90
59999;DHT22;45859;51.378;6.736;2023-02-28T16:50:18;4.60;99.90
59999;DHT22;45859;51.378;6.736;2023-02-28T16:52:44;4.60;99.90
59999;DHT22;45859;51.378;6.736;2023-02-28T16:55:10;4.50;99.90
59999;DHT22;45859;51.378;6.736;2023-02-28T16:57:35;4.40;99.90
59999;DHT22;45859;51.378;6.736;2023-02-28T17:00:02;4.40;99.90
59999;DHT22;45859;51.378;6.736;2023-02-28T17:02:28;4.40;99.90
59999;DHT22;45859;51.378;6.736;2023-02-28T17:04:53;4.40;99.90
59999;DHT22;45859;51.378;6.736;2023-02-28T17:07:19;4.30;99.90
59999;DHT22;45859;51.378;6.736;2023-02-28T17:09:45;4.40;99.90
59999;DHT22;45859;51.378;6.736;2023-02-28T17:12:10;4.30;99.90
59999;DHT22;45859;51.378;6.736;2023-02-28T17:14:37;4.30;99.90
59999;DHT22;45859;51.378;6.736;2023-02-28T17:17:05;4.20;99.90
59999;DHT22;45859;51.378;6.736;2023-02-28T17:19:30;4.20;99.90
59999;DHT22;45859;51.378;6.736;2023-02-28T17:21:56;4.10;99.90
59999;DHT22;45859;51.378;6.736;2023-02-28T17:24:22;4.10;99.90
59999;DHT22;45859;51.378;6.736;2023-02-28T17:26:48;4.00;99.90
59999;DHT22;45859;51.378;6.736;2023-02-28T17:29:20;4.00;99.90
59999;DHT22;45859;51.378;6.736;2023-02-28T17:31:46;4.00;99.90
59999;DHT22;45859;51.378;6.736;2023-02-28T17:34:12;4.00;99.90
59999;DHT22;45859;51.378;6.736;2023-02-28T17:36:44;3.90;99.90
59999;DHT22;45859;51.378;6.736;2023-02-28T17:39:12;4.00;99.90
59999;DHT22;45859;51.378;6.736;2023-02-28T17:41:42;3.90;99.90
59999;DHT22;45859;51.378;6.736;2023-02-28T17:44:08;3.90;99.90
59999;DHT22;45859;51.378;6.736;2023-02-28T17:46:35;3.90;99.90
59999;DHT22;45859;51.378;6.736;2023-02-28T17:49:01;3.80;99.90
59999;DHT22;45859;51.378;6.736;2023-02-28T17:51:26;3.70;99.90
59999;DHT22;45859;51.378;6.736;2023-02-28T17:53:52;3.70;99.90
59999;DHT22;45859;51.378;6.736;2023-02-28T17:56:23;3.70;99.90
59999;DHT22;45859;51.378;6.736;2023-02-28T17:58:51;3.60;99.90
59999;DHT22;45859;51.378;6.736;2023-02-28T18:01:17;3.60;99.90
59999;DHT22;45859;51.378;6.736;2023-02-28T18:03:43;3.50;99.90
59999;DHT22;45859;51.378;6.736;2023-02-28T18:06:39;3.90;99.90
59999;DHT22;45859;51.378;6.736;2023-02-28T18:09:18;3.40;99.90
59999;DHT22;45859;51.378;6.736;2023-02-28T18:11:47;3.30;99.90
59999;DHT22;45859;51.378;6.736;2023-02-28T18:14:17;3.30;99.90
59999;DHT22;45859;51.378;6.736;2023-02-28T18:16:43;3.20;99.90
59999;DHT22;45859;51.378;6.736;2023-02-28T18:19:10;3.10;99.90
59999;DHT22;45859;51.378;6.736;2023-02-28T18:21:40;3.00;99.90
59999;DHT22;45859;51.378;6.736;2023-02-28T18:24:07;3.00;99.90
59999;DHT22;45859;51.378;6.736;2023-02-28T18:26:33;2.90;99.90
59999;DHT22;45859;51.378;6.736;2023-02-28T18:28:58;2.90;99.90
59999;DHT22;45859;51.378;6.736;2023-02-28T18:31:24;2.80;99.90
59999;DHT22;45859;51.378;6.736;2023-02-28T18:33:51;2.90;99.90
59999;DHT22;45859;51.378;6.736;2023-02-28T18:36:18;2.80;99.90
59999;DHT22;45859;51.378;6.736;2023-02-28T18:38:45;2.90;99.90
59999;DHT22;45859;51.378;6.736;2023-02-28T18:41:11;2.90;99.90
59999;DHT22;45859;51.378;6.736;2023-02-28T18:43:37;2.90;99.90
59999;DHT22;45859;51.378;6.736;2023-02-28T18:46:12;2.90;99.90
59999;DHT22;45859;51.378;6.736;2023-02-28T18:48:38;2.90;99.90
59999;DHT22;45859;51.378;6.736;2023-02-28T18:51:13;2.80;99.90